Time;durP1;ratioP1;P1;durP2;ratioP2;P2;SDS_P1;SDS_P2;PMS_P1;PMS_P2;Temp;Humidity;BMP_temperature;BMP_pressure;BME280_temperature;BME280_humidity;BME280_pressure;Samples;Min_cycle;Max_cycle;Signal;HPM_P1;HPM_P2
2023/07/07 00:01:58;;;;;;;6.20;3.30;;;;;;;15.99;71.08;101062.08;106349;1257;98396;-79
2023/07/07 00:04:44;;;;;;;5.20;3.80;;;;;;;15.97;71.09;101059.58;106292;1257;101302;-78
2023/07/07 00:07:31;;;;;;;4.00;3.30;;;;;;;15.94;70.97;101060.21;106281;1256;100109;-79
2023/07/07 00:10:18;;;;;;;5.70;3.50;;;;;;;15.89;71.25;101062.79;106348;1256;98591;-79
2023/07/07 00:13:03;;;;;;;7.60;4.90;;;;;;;15.87;71.12;101058.97;106371;1254;97910;-78
2023/07/07 00:15:49;;;;;;;5.10;4.30;;;;;;;15.85;71.18;101059.64;106287;1258;97943;-79
2023/07/07 00:18:34;;;;;;;6.60;4.40;;;;;;;15.81;71.26;101063.71;106343;1255;102084;-78
2023/07/07 00:21:24;;;;;;;7.40;5.10;;;;;;;15.78;71.41;101060.89;106415;1257;99034;-79
2023/07/07 00:24:10;;;;;;;8.20;4.50;;;;;;;15.78;71.77;101060.98;106402;1254;99044;-79
2023/07/07 00:26:55;;;;;;;9.20;4.60;;;;;;;15.78;71.59;101064.83;106350;1257;99239;-79
2023/07/07 00:29:41;;;;;;;8.40;4.70;;;;;;;15.74;71.80;101063.46;106415;1254;97981;-78
2023/07/07 00:32:30;;;;;;;8.70;5.10;;;;;;;15.66;72.12;101062.06;106756;1254;102412;-80
2023/07/07 00:35:16;;;;;;;5.40;4.40;;;;;;;15.61;72.28;101064.56;106774;1258;100887;-78
2023/07/07 00:38:01;;;;;;;8.50;5.40;;;;;;;15.60;72.19;101064.30;105871;1257;97942;-78
2023/07/07 00:40:51;;;;;;;9.00;5.50;;;;;;;15.64;72.31;101069.04;105749;1258;97948;-78
2023/07/07 00:43:37;;;;;;;6.40;4.50;;;;;;;15.61;72.23;101073.16;105774;1254;97990;-78
2023/07/07 00:46:23;;;;;;;10.00;4.00;;;;;;;15.51;72.39;101068.50;106028;1254;102176;-79
2023/07/07 00:49:14;;;;;;;8.40;3.90;;;;;;;15.44;72.52;101066.54;106268;1258;99084;-79
2023/07/07 00:52:02;;;;;;;6.10;4.80;;;;;;;15.40;72.42;101071.88;106360;1257;99349;-78
2023/07/07 00:54:47;;;;;;;8.70;4.60;;;;;;;15.40;72.70;101074.03;106522;1254;97864;-79
2023/07/07 00:57:33;;;;;;;8.60;5.60;;;;;;;15.45;72.99;101073.98;106508;1255;97904;-79
2023/07/07 01:00:18;;;;;;;16.10;6.50;;;;;;;15.51;73.09;101074.66;106505;1253;102091;-78
2023/07/07 01:03:12;;;;;;;9.50;6.70;;;;;;;15.55;72.99;101079.52;106396;1255;100665;-80
2023/07/07 01:06:00;;;;;;;8.70;5.30;;;;;;;15.52;72.96;101080.77;106469;1254;97928;-79
2023/07/07 01:08:50;;;;;;;9.00;5.80;;;;;;;15.46;72.89;101078.47;106565;1254;98895;-78
2023/07/07 01:11:37;;;;;;;9.40;5.60;;;;;;;15.42;73.29;101077.70;106517;1255;98785;-79
2023/07/07 01:14:27;;;;;;;12.80;5.70;;;;;;;15.37;73.27;101075.11;106471;1258;101427;-80
2023/07/07 01:17:28;;;;;;;8.90;5.60;;;;;;;15.35;73.72;101077.59;105883;1254;99559;-78
2023/07/07 01:20:30;;;;;;;;;;;;;;;15.34;73.86;101080.30;105930;1254;98472;-78
2023/07/07 01:23:27;;;;;;;9.30;5.40;;;;;;;15.25;74.11;101083.77;105875;1256;97916;-78
2023/07/07 01:26:22;;;;;;;8.60;5.20;;;;;;;15.20;74.46;101076.09;106051;1254;97847;-78
2023/07/07 01:29:15;;;;;;;9.00;5.20;;;;;;;15.19;74.61;101072.25;106568;1254;101329;-78
2023/07/07 01:32:06;;;;;;;8.10;5.20;;;;;;;15.19;74.85;101073.80;106435;1258;100764;-79
2023/07/07 01:34:56;;;;;;;8.80;5.60;;;;;;;15.21;74.99;101075.43;106515;1255;98701;-79
2023/07/07 01:37:51;;;;;;;6.70;4.80;;;;;;;15.21;75.20;101079.21;106568;1252;98068;-79
2023/07/07 01:40:50;;;;;;;8.50;5.30;;;;;;;15.20;75.11;101078.74;107128;1257;98562;-80
2023/07/07 01:43:54;;;;;;;10.60;5.30;;;;;;;15.19;75.10;101075.11;106761;1257;102564;-78
2023/07/07 01:47:05;;;;;;;10.90;6.00;;;;;;;15.19;75.01;101079.23;106630;1255;99077;-78
2023/07/07 01:49:57;;;;;;;12.90;7.30;;;;;;;15.23;75.27;101079.91;106495;1254;98102;-79
2023/07/07 01:52:48;;;;;;;12.50;7.20;;;;;;;15.29;75.82;101082.20;107161;1257;97968;-79
2023/07/07 01:55:40;;;;;;;;;;;;;;;15.33;75.79;101088.52;107073;1253;97913;-79
2023/07/07 01:58:28;;;;;;;12.40;7.10;;;;;;;15.26;75.66;101095.06;106715;1254;101323;-79
2023/07/07 02:01:14;;;;;;;9.80;6.50;;;;;;;15.19;76.00;101098.09;106581;1253;99055;-79
2023/07/07 02:04:00;;;;;;;11.80;6.50;;;;;;;15.15;76.17;101097.20;106702;1254;98494;-79
2023/07/07 02:06:46;;;;;;;12.80;7.20;;;;;;;15.11;76.37;101089.48;106604;1258;98608;-79
2023/07/07 02:09:33;;;;;;;10.70;7.00;;;;;;;15.10;76.62;101091.75;106620;1253;97670;-79
2023/07/07 02:12:19;;;;;;;10.90;6.30;;;;;;;15.11;76.63;101097.65;106650;1254;102613;-79
2023/07/07 02:15:05;;;;;;;12.00;6.90;;;;;;;15.10;76.67;101101.46;106524;1254;99169;-80
2023/07/07 02:17:51;;;;;;;10.00;6.30;;;;;;;15.08;76.79;101103.50;106551;1254;98304;-79
2023/07/07 02:20:37;;;;;;;9.10;6.10;;;;;;;15.06;76.61;101104.98;105929;1258;97997;-78
2023/07/07 02:23:22;;;;;;;10.90;6.30;;;;;;;15.04;76.73;101106.17;106027;1257;98519;-79
2023/07/07 02:26:09;;;;;;;12.60;7.10;;;;;;;15.05;77.06;101106.14;106100;1256;101357;-78
2023/07/07 02:28:54;;;;;;;9.90;7.30;;;;;;;15.07;77.02;101110.92;105963;1258;99945;-78
2023/07/07 02:31:41;;;;;;;10.20;7.20;;;;;;;15.06;77.07;101112.25;105963;1254;98894;-79
2023/07/07 02:34:27;;;;;;;10.10;6.80;;;;;;;15.06;77.36;101116.98;105988;1254;97888;-78
2023/07/07 02:37:16;;;;;;;10.40;7.30;;;;;;;15.05;77.28;101116.08;105981;1254;97967;-78
2023/07/07 02:40:04;;;;;;;10.70;7.50;;;;;;;15.05;77.42;101120.39;106016;1258;101367;-78
2023/07/07 02:42:49;;;;;;;9.30;7.10;;;;;;;15.08;77.47;101119.40;106001;1254;99856;-78
2023/07/07 02:45:35;;;;;;;9.10;7.00;;;;;;;15.11;77.64;101120.11;105892;1258;97974;-78
2023/07/07 02:48:21;;;;;;;10.40;6.50;;;;;;;15.13;77.52;101120.49;105931;1261;98448;-79
2023/07/07 02:51:07;;;;;;;12.40;6.40;;;;;;;15.14;77.78;101118.13;105920;1259;98421;-79
2023/07/07 02:53:53;;;;;;;10.10;7.20;;;;;;;15.15;77.84;101123.73;105944;1258;101340;-79
2023/07/07 02:56:39;;;;;;;10.90;6.80;;;;;;;15.16;77.90;101123.08;105977;1256;100304;-78
2023/07/07 02:59:25;;;;;;;9.10;5.90;;;;;;;15.16;77.63;101125.02;105979;1258;98003;-79
2023/07/07 03:02:10;;;;;;;8.80;6.00;;;;;;;15.10;77.55;101122.34;106014;1259;98707;-79
2023/07/07 03:04:56;;;;;;;12.50;6.60;;;;;;;15.04;77.32;101122.54;105951;1256;98480;-79
2023/07/07 03:07:41;;;;;;;9.30;6.70;;;;;;;14.96;77.09;101129.30;106028;1258;101361;-79
2023/07/07 03:10:31;;;;;;;8.20;5.50;;;;;;;14.93;77.55;101132.29;105936;1254;100774;-78
2023/07/07 03:13:17;;;;;;;7.60;5.50;;;;;;;14.92;77.99;101128.44;105920;1254;99016;-79
2023/07/07 03:16:30;;;;;;;7.10;5.70;;;;;;;14.93;78.25;101132.25;105921;1255;97926;-78
2023/07/07 03:19:19;;;;;;;6.80;5.70;;;;;;;14.94;78.83;101134.99;105897;1254;97955;-78
2023/07/07 03:22:13;;;;;;;7.90;5.40;;;;;;;14.94;78.90;101135.04;106040;1254;101348;-79
2023/07/07 03:25:06;;;;;;;11.10;6.00;;;;;;;14.94;78.97;101135.38;105790;1265;99101;-78
2023/07/07 03:27:56;;;;;;;9.30;6.60;;;;;;;14.94;78.97;101138.44;106548;1257;98153;-79
2023/07/07 03:30:51;;;;;;;8.80;5.90;;;;;;;14.95;79.22;101142.34;106600;1256;97958;-79
2023/07/07 03:33:40;;;;;;;11.60;6.20;;;;;;;15.01;79.49;101144.13;106608;1254;97877;-79
2023/07/07 03:36:29;;;;;;;8.70;6.60;;;;;;;15.06;79.82;101147.00;106585;1253;102568;-79
2023/07/07 03:39:15;;;;;;;9.20;6.50;;;;;;;15.11;79.75;101146.02;107111;1255;99071;-78
2023/07/07 03:42:03;;;;;;;11.50;6.60;;;;;;;15.16;79.55;101149.06;106546;1254;97967;-80
2023/07/07 03:44:50;;;;;;;9.20;5.60;;;;;;;15.18;79.53;101147.61;106690;1254;97961;-78
2023/07/07 03:47:35;;;;;;;9.70;5.60;;;;;;;15.18;79.60;101147.19;106667;1255;98406;-80
2023/07/07 03:50:21;;;;;;;7.00;5.90;;;;;;;15.21;79.66;101149.36;106642;1253;102332;-80
2023/07/07 03:53:07;;;;;;;8.00;6.00;;;;;;;15.26;79.79;101149.51;106716;1257;100454;-79
2023/07/07 03:55:54;;;;;;;9.20;6.40;;;;;;;15.34;79.78;101148.23;106555;1258;98968;-79
2023/07/07 03:58:39;;;;;;;8.80;5.80;;;;;;;15.44;79.56;101147.54;107310;1254;97187;-79
2023/07/07 04:01:25;;;;;;;9.60;6.90;;;;;;;15.53;79.89;101146.44;107332;1257;97916;-80
2023/07/07 04:04:11;;;;;;;11.60;7.10;;;;;;;15.61;80.10;101149.40;107192;1253;102062;-79
2023/07/07 04:06:59;;;;;;;6.60;5.40;;;;;;;15.68;80.58;101157.42;107311;1256;99768;-80
2023/07/07 04:09:44;;;;;;;9.50;5.80;;;;;;;15.73;80.79;101164.41;107125;1254;99182;-79
2023/07/07 04:12:31;;;;;;;8.70;6.00;;;;;;;15.76;80.86;101166.94;106750;1257;97955;-79
2023/07/07 04:15:17;;;;;;;10.90;6.40;;;;;;;15.77;81.01;101167.41;106637;1257;97885;-79
2023/07/07 04:18:02;;;;;;;13.50;6.20;;;;;;;15.82;81.19;101173.73;106585;1255;101363;-79
2023/07/07 04:20:48;;;;;;;8.70;6.40;;;;;;;15.86;81.12;101171.60;106861;1254;100304;-79
2023/07/07 04:23:35;;;;;;;13.10;8.90;;;;;;;15.95;81.20;101172.89;107210;1254;97872;-80
2023/07/07 04:26:22;;;;;;;10.40;7.20;;;;;;;16.08;81.22;101170.93;107128;1254;97927;-79
2023/07/07 04:29:08;;;;;;;9.90;7.40;;;;;;;16.19;81.27;101171.47;107121;1254;99573;-80
2023/07/07 04:31:53;;;;;;;9.50;6.50;;;;;;;16.31;81.52;101175.08;107200;1257;101344;-79
2023/07/07 04:34:39;;;;;;;11.40;7.10;;;;;;;16.46;81.45;101178.55;107356;1254;109653;-79
2023/07/07 04:37:25;;;;;;;11.20;6.90;;;;;;;16.60;81.35;101181.67;107295;1254;97998;-80
2023/07/07 04:40:11;;;;;;;9.60;5.90;;;;;;;16.75;81.09;101185.99;106959;1257;97189;-79
2023/07/07 04:42:57;;;;;;;11.60;6.60;;;;;;;16.96;81.18;101187.34;106672;1258;99106;-79
2023/07/07 04:45:44;;;;;;;9.30;6.50;;;;;;;17.15;81.27;101192.60;106492;1256;101346;-79
2023/07/07 04:48:31;;;;;;;13.80;6.80;;;;;;;17.25;80.94;101194.84;106513;1257;100109;-80
2023/07/07 04:51:17;;;;;;;8.00;6.30;;;;;;;17.32;80.67;101194.55;106665;1258;98983;-79
2023/07/07 04:54:04;;;;;;;12.10;7.20;;;;;;;17.36;80.20;101199.74;106832;1258;98562;-81
2023/07/07 04:56:50;;;;;;;9.00;5.80;;;;;;;17.39;80.37;101206.17;107181;1254;97846;-79
2023/07/07 04:59:36;;;;;;;10.40;6.50;;;;;;;17.42;80.46;101204.13;107221;1258;102066;-80
2023/07/07 05:02:22;;;;;;;8.10;5.80;;;;;;;17.46;80.15;101201.18;107025;1257;99062;-79
2023/07/07 05:05:08;;;;;;;10.60;5.90;;;;;;;17.52;80.27;101202.89;105959;1258;99099;-78
2023/07/07 05:07:54;;;;;;;10.10;6.20;;;;;;;17.52;80.12;101207.17;105986;1255;98062;-78
2023/07/07 05:10:39;;;;;;;7.90;6.30;;;;;;;17.52;79.82;101213.52;105924;1257;98495;-78
2023/07/07 05:13:26;;;;;;;7.00;5.60;;;;;;;17.52;79.81;101218.52;105928;1257;102587;-78
2023/07/07 05:16:14;;;;;;;8.90;5.30;;;;;;;17.61;79.70;101216.07;105908;1258;101243;-78
2023/07/07 05:19:00;;;;;;;7.50;5.10;;;;;;;17.75;79.69;101218.34;105929;1258;99268;-78
2023/07/07 05:21:46;;;;;;;9.20;6.10;;;;;;;17.90;79.60;101216.73;105932;1255;97927;-78
2023/07/07 05:24:32;;;;;;;7.80;5.00;;;;;;;18.02;78.78;101216.39;106077;1253;97875;-78
2023/07/07 05:27:18;;;;;;;9.60;5.40;;;;;;;18.15;78.26;101217.54;106013;1256;101328;-78
2023/07/07 05:30:05;;;;;;;7.90;5.40;;;;;;;18.30;77.89;101214.77;105987;1258;99071;-79
2023/07/07 05:32:50;;;;;;;9.20;4.90;;;;;;;18.46;77.15;101214.28;105914;1259;98580;-78
2023/07/07 05:35:36;;;;;;;6.00;5.10;;;;;;;18.62;76.14;101219.40;106002;1255;99234;-79
2023/07/07 05:38:24;;;;;;;13.10;4.90;;;;;;;18.76;75.83;101219.30;106056;1258;98606;-78
2023/07/07 05:41:10;;;;;;;7.20;5.00;;;;;;;18.88;74.93;101222.33;106070;1257;101422;-78
2023/07/07 05:43:56;;;;;;;7.00;4.50;;;;;;;18.97;74.44;101222.02;106119;1256;99840;-78
2023/07/07 05:46:41;;;;;;;5.90;4.00;;;;;;;19.09;73.94;101224.89;106097;1257;97952;-78
2023/07/07 05:49:27;;;;;;;7.50;4.20;;;;;;;19.18;72.83;101228.54;106128;1258;97958;-78
2023/07/07 05:52:14;;;;;;;8.60;4.60;;;;;;;19.26;72.34;101230.73;106046;1256;98028;-78
2023/07/07 05:54:59;;;;;;;7.00;4.60;;;;;;;19.37;72.43;101237.40;106067;1253;101331;-78
2023/07/07 05:57:45;;;;;;;6.40;4.50;;;;;;;19.46;72.64;101231.75;106084;1254;99698;-79
2023/07/07 06:00:33;;;;;;;9.90;4.80;;;;;;;19.58;73.02;101233.10;106172;1255;98511;-79
2023/07/07 06:03:19;;;;;;;4.60;4.10;;;;;;;19.71;72.50;101240.48;106049;1258;99259;-78
2023/07/07 06:06:05;;;;;;;5.60;4.30;;;;;;;19.80;71.54;101239.41;106618;1254;98915;-79
2023/07/07 06:08:51;;;;;;;8.60;4.10;;;;;;;19.91;71.04;101237.60;106124;1259;101323;-79
2023/07/07 06:11:37;;;;;;;6.20;4.40;;;;;;;20.02;71.29;101236.13;106062;1257;99080;-79
2023/07/07 06:14:23;;;;;;;4.40;3.90;;;;;;;20.13;70.78;101238.42;106167;1258;98976;-79
2023/07/07 06:17:08;;;;;;;5.30;3.80;;;;;;;20.25;70.90;101242.84;105871;1258;98058;-77
2023/07/07 06:19:54;;;;;;;5.40;4.10;;;;;;;20.36;70.58;101243.46;105479;1258;99194;-77
2023/07/07 06:22:40;;;;;;;7.10;4.40;;;;;;;20.48;70.01;101245.27;105493;1258;101664;-78
2023/07/07 06:25:25;;;;;;;6.90;4.50;;;;;;;20.59;70.09;101253.42;105620;1257;100344;-78
2023/07/07 06:28:11;;;;;;;6.50;4.20;;;;;;;20.70;69.47;101250.36;106104;1254;98035;-78
2023/07/07 06:30:57;;;;;;;5.10;3.40;;;;;;;20.79;68.87;101250.02;106082;1254;98361;-78
2023/07/07 06:33:42;;;;;;;5.70;3.90;;;;;;;20.90;68.43;101249.40;106079;1256;97913;-79
2023/07/07 06:36:28;;;;;;;6.60;3.60;;;;;;;21.03;67.68;101252.61;106163;1256;101349;-79
2023/07/07 06:39:13;;;;;;;5.90;3.20;;;;;;;21.16;66.37;101251.20;106203;1258;99108;-79
2023/07/07 06:42:01;;;;;;;3.50;2.80;;;;;;;21.28;65.83;101246.05;106135;1255;98736;-79
2023/07/07 06:44:51;;;;;;;7.80;3.50;;;;;;;21.38;65.11;101239.34;106098;1259;98028;-78
2023/07/07 06:47:36;;;;;;;6.30;3.60;;;;;;;21.50;64.75;101240.30;106117;1258;97951;-79
2023/07/07 06:50:31;;;;;;;3.60;2.90;;;;;;;21.62;64.84;101243.58;106093;1256;102601;-79
2023/07/07 06:53:17;;;;;;;3.90;2.80;;;;;;;21.73;65.02;101244.50;106161;1255;99072;-79
2023/07/07 06:56:03;;;;;;;4.10;2.40;;;;;;;21.83;62.50;101246.60;106154;1257;97978;-79
2023/07/07 06:58:49;;;;;;;6.00;2.70;;;;;;;21.91;62.02;101245.46;106154;1256;99409;-78
2023/07/07 07:01:34;;;;;;;4.70;2.90;;;;;;;22.01;61.03;101243.19;106059;1258;97842;-79
2023/07/07 07:04:20;;;;;;;3.40;2.60;;;;;;;22.10;59.51;101243.45;106150;1257;102046;-79
2023/07/07 07:07:08;;;;;;;6.10;2.30;;;;;;;22.18;58.46;101237.91;106121;1257;100059;-79
2023/07/07 07:09:53;;;;;;;3.50;2.10;;;;;;;22.26;57.15;101241.21;106107;1258;97875;-79
2023/07/07 07:12:39;;;;;;;3.90;2.20;;;;;;;22.34;55.64;101246.69;106007;1254;97871;-78
2023/07/07 07:15:24;;;;;;;4.40;2.30;;;;;;;22.39;54.68;101245.50;106092;1256;97851;-78
2023/07/07 07:18:12;;;;;;;4.80;2.60;;;;;;;22.43;55.22;101247.70;106096;1260;102715;-79
2023/07/07 07:20:58;;;;;;;4.50;2.30;;;;;;;22.51;54.65;101250.23;106259;1256;99749;-78
2023/07/07 07:23:44;;;;;;;4.80;2.40;;;;;;;22.58;54.06;101251.84;106003;1258;98482;-79
2023/07/07 07:26:29;;;;;;;3.30;2.50;;;;;;;22.64;54.03;101254.29;106058;1258;97957;-78
2023/07/07 07:29:14;;;;;;;3.50;2.10;;;;;;;22.68;53.80;101252.66;106097;1259;97917;-78
2023/07/07 07:32:00;;;;;;;3.50;2.20;;;;;;;22.71;52.90;101255.77;106189;1258;101423;-80
2023/07/07 07:34:46;;;;;;;3.60;2.20;;;;;;;22.75;52.90;101258.60;106553;1256;99849;-80
2023/07/07 07:37:32;;;;;;;2.90;2.00;;;;;;;22.75;52.35;101258.06;106451;1259;98991;-80
2023/07/07 07:40:17;;;;;;;3.70;2.30;;;;;;;22.78;52.52;101264.57;106572;1258;98034;-79
2023/07/07 07:43:03;;;;;;;2.70;1.80;;;;;;;22.86;51.77;101266.75;107000;1255;96400;-80
2023/07/07 07:45:48;;;;;;;5.10;2.10;;;;;;;22.93;51.36;101269.54;107038;1256;101328;-79
2023/07/07 07:48:34;;;;;;;3.90;2.50;;;;;;;23.00;51.03;101272.41;106283;1256;100510;-78
2023/07/07 07:51:19;;;;;;;3.10;2.30;;;;;;;23.09;50.81;101278.07;106456;1258;98402;-79
2023/07/07 07:54:10;;;;;;;2.60;1.70;;;;;;;23.18;50.95;101283.70;106625;1255;97956;-80
2023/07/07 07:56:56;;;;;;;;;;;;;;;23.25;49.92;101280.84;106296;1257;99211;-79
2023/07/07 07:59:42;;;;;;;3.00;1.90;;;;;;;23.22;48.68;101282.50;105946;1258;101332;-78
2023/07/07 08:02:27;;;;;;;3.80;1.90;;;;;;;23.18;48.42;101283.48;105969;1253;99065;-79
2023/07/07 08:05:13;;;;;;;6.90;2.00;;;;;;;23.19;48.87;101284.20;106009;1258;98744;-78
2023/07/07 08:07:58;;;;;;;2.00;1.80;;;;;;;23.18;48.60;101287.09;106020;1268;99240;-79
2023/07/07 08:10:44;;;;;;;3.20;2.40;;;;;;;23.13;48.43;101287.89;105961;1256;98478;-78
2023/07/07 08:13:29;;;;;;;2.40;1.80;;;;;;;23.05;48.12;101287.08;105962;1257;101924;-78
2023/07/07 08:16:15;;;;;;;2.30;2.00;;;;;;;22.95;48.16;101289.01;105948;1259;99104;-79
2023/07/07 08:19:00;;;;;;;3.40;1.80;;;;;;;22.97;47.71;101282.98;105945;1256;97958;-79
2023/07/07 08:21:47;;;;;;;4.90;2.10;;;;;;;23.07;47.69;101285.23;105988;1256;99241;-78
2023/07/07 08:24:38;;;;;;;2.60;1.80;;;;;;;23.21;47.67;101290.08;106539;1253;97983;-78
2023/07/07 08:27:26;;;;;;;4.20;1.50;;;;;;;23.36;47.25;101287.20;106026;1254;101361;-78
2023/07/07 08:30:11;;;;;;;3.20;2.00;;;;;;;23.52;47.21;101289.75;106131;1259;99230;-78
2023/07/07 08:32:57;;;;;;;3.60;1.80;;;;;;;23.68;46.43;101289.95;105686;1260;100455;-77
2023/07/07 08:35:42;;;;;;;2.70;1.90;;;;;;;23.82;46.35;101287.81;105822;1258;97955;-78
2023/07/07 08:38:28;;;;;;;4.00;1.80;;;;;;;23.82;45.93;101294.05;105976;1260;97917;-78
2023/07/07 08:41:13;;;;;;;4.00;1.50;;;;;;;23.77;45.58;101293.98;105921;1258;101434;-79
2023/07/07 08:43:59;;;;;;;2.50;1.70;;;;;;;23.73;44.41;101293.71;105875;1255;100330;-79
2023/07/07 08:47:02;;;;;;;2.70;1.40;;;;;;;23.62;44.38;101298.89;105887;1257;99012;-78
2023/07/07 08:50:15;;;;;;;5.60;2.40;;;;;;;23.58;45.08;101297.05;105922;1258;97957;-78
2023/07/07 08:53:31;;;;;;;3.90;1.90;;;;;;;23.72;45.10;101290.80;105872;1258;99788;-78
2023/07/07 08:56:24;;;;;;;4.00;1.80;;;;;;;23.89;44.09;101292.18;105759;1258;102612;-78
2023/07/07 08:59:12;;;;;;;2.60;1.60;;;;;;;24.01;43.83;101297.09;106027;1256;99114;-78
2023/07/07 09:02:29;;;;;;;4.50;1.80;;;;;;;24.15;43.42;101298.02;105955;1256;97838;-78
2023/07/07 09:05:15;;;;;;;3.40;1.80;;;;;;;24.29;43.75;101292.68;105993;1261;98458;-78
2023/07/07 09:08:18;;;;;;;3.50;1.60;;;;;;;24.35;43.74;101292.89;106049;1258;98472;-78
2023/07/07 09:11:18;;;;;;;2.80;1.80;;;;;;;24.24;43.90;101297.23;106002;1254;101391;-78
2023/07/07 09:14:07;;;;;;;;;;;;;;;24.09;43.76;101298.17;106015;1260;99775;-77
2023/07/07 09:16:58;;;;;;;2.50;1.50;;;;;;;23.90;43.77;101300.70;105852;1258;97951;-78
2023/07/07 09:19:46;;;;;;;2.60;1.60;;;;;;;23.74;43.35;101301.89;105855;1260;97973;-78
2023/07/07 09:22:38;;;;;;;4.00;1.60;;;;;;;23.61;43.52;101304.46;106338;1258;98486;-78
2023/07/07 09:25:56;;;;;;;3.90;1.80;;;;;;;23.52;43.40;101306.38;105854;1258;101340;-78
2023/07/07 09:28:45;;;;;;;2.00;1.50;;;;;;;23.53;43.33;101300.70;105916;1253;99342;-78
2023/07/07 09:31:42;;;;;;;1.60;1.30;;;;;;;23.68;43.46;101296.98;106042;1258;97883;-78
2023/07/07 09:34:27;;;;;;;4.30;1.40;;;;;;;23.89;43.91;101293.11;105997;1258;98150;-78
2023/07/07 09:37:46;;;;;;;1.60;1.50;;;;;;;24.07;42.81;101295.14;106046;1258;99740;-79
2023/07/07 09:40:50;;;;;;;2.80;1.40;;;;;;;24.21;42.21;101292.54;106438;1256;101332;-78
2023/07/07 09:43:43;;;;;;;5.00;1.50;;;;;;;24.36;42.19;101297.07;106113;1253;99076;-78
2023/07/07 09:46:45;;;;;;;3.20;1.60;;;;;;;24.49;41.39;101301.55;105926;1269;99035;-79
2023/07/07 09:49:46;;;;;;;1.40;1.30;;;;;;;24.44;41.31;101303.69;105921;1258;99320;-78
2023/07/07 09:52:38;;;;;;;1.90;1.40;;;;;;;24.25;41.43;101306.82;105891;1260;98019;-78
2023/07/07 09:55:30;;;;;;;2.10;1.60;;;;;;;24.18;41.65;101307.84;105991;1257;102447;-78
2023/07/07 09:58:18;;;;;;;2.00;1.60;;;;;;;24.28;42.22;101301.86;106275;1257;99284;-78
2023/07/07 10:01:04;;;;;;;2.30;1.40;;;;;;;24.41;41.63;101301.16;106573;1257;99167;-78
2023/07/07 10:03:50;;;;;;;1.70;1.40;;;;;;;24.54;41.62;101298.35;106848;1253;97054;-79
2023/07/07 10:06:47;;;;;;;2.10;1.50;;;;;;;24.66;40.79;101293.20;106805;1254;98333;-79
2023/07/07 10:09:34;;;;;;;2.10;1.30;;;;;;;24.76;40.64;101295.28;106754;1256;101535;-79
2023/07/07 10:12:20;;;;;;;3.50;1.60;;;;;;;24.72;40.05;101297.75;106823;1256;100552;-79
2023/07/07 10:15:31;;;;;;;2.70;1.40;;;;;;;24.68;39.95;101297.77;106596;1258;98526;-79
2023/07/07 10:18:24;;;;;;;3.50;1.40;;;;;;;24.73;39.82;101296.50;106378;1259;97929;-79
2023/07/07 10:21:10;;;;;;;1.50;1.40;;;;;;;24.74;39.35;101295.92;106364;1260;97877;-81
2023/07/07 10:23:56;;;;;;;1.90;1.30;;;;;;;24.77;39.19;101296.26;106923;1258;101362;-79
2023/07/07 10:26:47;;;;;;;1.50;1.20;;;;;;;24.84;39.37;101304.32;105771;1259;99380;-78
2023/07/07 10:29:37;;;;;;;1.40;1.30;;;;;;;24.88;38.50;101301.35;105684;1258;98752;-78
2023/07/07 10:32:23;;;;;;;2.20;1.40;;;;;;;24.90;38.44;101293.56;106622;1253;97909;-79
2023/07/07 10:35:09;;;;;;;2.70;1.50;;;;;;;24.89;38.45;101292.95;106265;1254;99365;-80
2023/07/07 10:38:00;;;;;;;3.00;1.40;;;;;;;24.87;37.83;101294.41;106201;1258;101333;-79
2023/07/07 10:40:48;;;;;;;0.90;0.90;;;;;;;24.87;37.41;101298.14;106804;1257;99095;-79
2023/07/07 10:43:33;;;;;;;4.40;0.90;;;;;;;24.94;37.67;101300.98;107635;1256;97991;-80
2023/07/07 10:46:20;;;;;;;1.80;1.20;;;;;;;25.01;37.21;101301.41;106748;1256;98086;-79
2023/07/07 10:49:15;;;;;;;3.40;1.30;;;;;;;25.06;37.24;101296.52;106782;1254;97822;-79
2023/07/07 10:52:33;;;;;;;2.20;1.00;;;;;;;25.14;37.94;101298.65;106920;1254;102098;-79
2023/07/07 10:55:57;;;;;;;1.90;1.10;;;;;;;25.22;37.06;101296.98;106751;1257;100854;-80
2023/07/07 10:59:14;;;;;;;3.00;1.00;;;;;;;25.21;36.57;101293.36;106121;1258;98940;-79
2023/07/07 11:02:33;;;;;;;2.00;1.20;;;;;;;25.23;36.40;101288.86;106355;1258;97900;-80
2023/07/07 11:05:36;;;;;;;1.10;1.00;;;;;;;25.21;36.05;101283.45;106678;1259;98366;-79
2023/07/07 11:08:37;;;;;;;3.90;1.00;;;;;;;25.11;36.34;101292.67;106606;1254;101356;-79
2023/07/07 11:11:45;;;;;;;;;;;;;;;25.16;36.57;101290.27;106644;1267;99062;-79
2023/07/07 11:14:55;;;;;;;0.90;0.90;;;;;;;25.24;36.51;101284.27;106702;1257;97951;-79
2023/07/07 11:17:53;;;;;;;2.30;1.20;;;;;;;25.37;36.71;101292.24;106649;1254;96768;-79
2023/07/07 11:20:54;;;;;;;1.30;1.00;;;;;;;25.41;35.71;101292.25;106545;1256;98451;-78
2023/07/07 11:23:58;;;;;;;1.60;1.30;;;;;;;25.47;36.43;101288.34;106729;1257;102062;-80
2023/07/07 11:27:08;;;;;;;1.70;0.90;;;;;;;25.62;36.18;101288.58;106557;1258;99075;-80
2023/07/07 11:30:08;;;;;;;2.80;1.00;;;;;;;25.75;36.16;101294.55;106497;1255;97894;-79
2023/07/07 11:33:07;;;;;;;2.10;1.30;;;;;;;25.85;35.75;101289.46;106063;1254;97963;-79
2023/07/07 11:36:30;;;;;;;1.30;1.00;;;;;;;25.88;35.15;101283.30;106585;1255;98377;-79
2023/07/07 11:39:41;;;;;;;2.80;1.20;;;;;;;25.89;34.76;101280.30;106602;1257;101329;-79
2023/07/07 11:42:38;;;;;;;1.40;1.10;;;;;;;25.89;34.78;101275.70;106686;1260;99138;-79
2023/07/07 11:45:48;;;;;;;2.20;1.10;;;;;;;25.92;34.29;101275.64;106315;1257;97948;-77
2023/07/07 11:48:40;;;;;;;1.70;0.90;;;;;;;25.93;34.01;101277.69;105897;1257;97963;-78
2023/07/07 11:51:47;;;;;;;2.50;1.60;;;;;;;25.96;34.45;101277.03;105973;1257;98488;-78
2023/07/07 11:54:48;;;;;;;1.80;1.10;;;;;;;26.03;34.25;101270.17;106011;1257;101349;-77
2023/07/07 11:57:52;;;;;;;1.40;1.00;;;;;;;26.13;34.10;101269.61;105992;1257;99078;-77
2023/07/07 12:00:59;;;;;;;3.20;1.50;;;;;;;26.17;33.59;101267.46;105928;1260;99089;-78
2023/07/07 12:03:59;;;;;;;1.50;1.00;;;;;;;26.18;33.36;101270.88;105972;1254;98645;-79
2023/07/07 12:07:02;;;;;;;2.90;1.10;;;;;;;26.16;33.10;101268.08;105957;1261;98081;-78
2023/07/07 12:09:58;;;;;;;1.10;0.90;;;;;;;26.19;32.91;101274.05;106539;1255;101292;-79
2023/07/07 12:12:55;;;;;;;3.20;1.10;;;;;;;26.21;32.77;101273.13;106609;1257;99855;-79
2023/07/07 12:15:49;;;;;;;3.90;1.10;;;;;;;26.23;33.00;101267.63;106580;1255;98718;-79
2023/07/07 12:18:38;;;;;;;2.40;1.00;;;;;;;26.27;32.87;101265.33;106637;1254;98636;-79
2023/07/07 12:21:29;;;;;;;1.90;1.10;;;;;;;26.30;33.58;101267.69;106640;1257;98301;-79
2023/07/07 12:24:26;;;;;;;1.20;1.00;;;;;;;26.37;33.46;101273.02;106549;1258;101285;-79
2023/07/07 12:27:18;;;;;;;2.00;0.90;;;;;;;26.39;32.72;101264.52;106603;1257;99096;-79
2023/07/07 12:30:05;;;;;;;1.10;0.90;;;;;;;26.35;32.64;101261.27;106632;1257;98031;-79
2023/07/07 12:32:52;;;;;;;1.60;1.00;;;;;;;26.35;32.28;101253.47;106622;1254;99048;-79
2023/07/07 12:35:53;;;;;;;0.70;0.70;;;;;;;26.35;32.66;101247.58;106777;1254;97819;-79
2023/07/07 12:38:39;;;;;;;2.10;1.20;;;;;;;26.45;32.94;101248.95;106632;1254;102597;-78
2023/07/07 12:41:27;;;;;;;1.30;1.00;;;;;;;26.52;32.56;101247.19;106484;1254;100375;-79
2023/07/07 12:44:13;;;;;;;1.10;1.00;;;;;;;26.51;32.20;101243.56;105864;1257;99246;-79
2023/07/07 12:46:58;;;;;;;2.10;0.90;;;;;;;26.48;31.84;101252.48;106135;1257;97957;-78
2023/07/07 12:49:52;;;;;;;4.10;1.40;;;;;;;26.44;31.75;101249.84;105974;1254;97991;-78
2023/07/07 12:52:42;;;;;;;3.20;1.10;;;;;;;26.45;31.62;101246.77;106768;1258;101365;-78
2023/07/07 12:55:30;;;;;;;2.10;1.70;;;;;;;26.47;31.36;101255.39;106542;1257;99378;-78
2023/07/07 12:58:30;;;;;;;1.20;1.00;;;;;;;26.47;31.43;101254.44;106042;1254;99259;-80
2023/07/07 13:01:15;;;;;;;1.00;0.90;;;;;;;26.54;31.44;101254.66;106232;1269;97856;-79